createdAt,value
2022-08-08T09:46:35.586Z,23.60
2022-08-08T09:49:40.898Z,24.20
2022-08-08T09:52:06.078Z,24.80
2022-08-08T09:54:44.585Z,25.20
2022-08-08T09:57:19.455Z,25.50
2022-08-08T10:00:34.236Z,25.80
2022-08-08T10:02:45.513Z,26.00
2022-08-08T10:05:25.434Z,26.30
2022-08-08T10:08:00.597Z,26.40
2022-08-08T10:10:50.146Z,26.60
2022-08-08T10:13:32.061Z,26.80
2022-08-08T10:16:03.910Z,26.90
2022-08-08T10:18:35.984Z,27.10
2022-08-08T10:21:24.949Z,27.20
2022-08-08T10:23:59.487Z,27.30
2022-08-08T10:26:52.006Z,27.30
2022-08-08T10:29:56.722Z,27.40
2022-08-08T10:32:40.256Z,27.50
2022-08-08T10:36:08.539Z,27.50
2022-08-08T10:38:14.701Z,27.60
2022-08-08T10:40:45.738Z,27.60
2022-08-08T10:43:14.466Z,27.70
2022-08-08T10:45:55.871Z,27.70
2022-08-08T10:48:56.699Z,27.80
2022-08-08T10:51:30.778Z,27.80
2022-08-08T10:54:00.111Z,27.80
2022-08-08T10:56:32.519Z,27.90
2022-08-08T10:59:10.373Z,27.90
2022-08-08T11:01:54.435Z,27.90
2022-08-08T11:04:38.573Z,28.00
2022-08-08T11:07:07.432Z,28.00
2022-08-08T11:09:47.472Z,28.00
2022-08-08T11:12:15.020Z,28.10
2022-08-08T11:14:56.913Z,28.10
2022-08-08T11:17:58.227Z,28.20
2022-08-08T11:20:27.972Z,28.20
2022-08-08T11:23:05.214Z,28.20
2022-08-08T11:25:43.618Z,28.20
2022-08-08T11:28:29.511Z,28.30
2022-08-08T11:31:03.999Z,28.30
2022-08-08T11:33:52.759Z,28.30
2022-08-08T11:36:29.244Z,28.30
2022-08-08T11:38:57.021Z,28.30
2022-08-08T11:41:27.864Z,28.30
2022-08-08T11:44:01.117Z,28.30
2022-08-08T11:46:32.533Z,28.30
2022-08-08T11:49:05.191Z,28.30
2022-08-08T11:51:38.138Z,28.30
2022-08-08T11:54:26.850Z,28.30
2022-08-08T11:56:58.207Z,28.30
2022-08-08T12:00:00.246Z,28.30
2022-08-08T12:02:34.146Z,28.30
2022-08-08T12:05:12.600Z,28.30
2022-08-08T12:07:53.218Z,28.30
2022-08-08T12:10:24.642Z,28.30
2022-08-08T12:13:09.425Z,28.30
2022-08-08T12:15:49.033Z,28.30
2022-08-08T12:18:25.253Z,28.30
2022-08-08T12:20:56.633Z,28.30
2022-08-08T12:23:42.763Z,28.30
2022-08-08T12:26:27.221Z,28.40
2022-08-08T12:28:59.483Z,28.40
2022-08-08T12:31:38.749Z,28.40
2022-08-08T12:34:20.531Z,28.40
2022-08-08T12:37:05.576Z,28.40
2022-08-08T12:40:01.913Z,28.50
2022-08-08T12:42:27.400Z,28.50
2022-08-08T12:45:54.311Z,28.60
2022-08-08T12:48:09.687Z,28.60
2022-08-08T12:50:48.095Z,28.60
2022-08-08T12:53:37.761Z,28.60
2022-08-08T12:56:19.618Z,28.60
2022-08-08T12:58:54.282Z,28.60
2022-08-08T13:01:36.992Z,28.60
2022-08-08T13:04:25.193Z,28.70
2022-08-08T13:07:00.613Z,28.70
2022-08-08T13:10:04.551Z,28.70
2022-08-08T13:12:46.565Z,28.70
2022-08-08T13:15:16.928Z,28.70
2022-08-08T13:17:54.257Z,28.70
2022-08-08T13:20:34.435Z,28.70
2022-08-08T13:23:31.243Z,28.70
2022-08-08T13:25:51.209Z,28.70
2022-08-08T13:28:32.490Z,28.70
2022-08-08T13:31:03.841Z,28.70
2022-08-08T13:33:42.283Z,28.70
2022-08-08T13:36:10.947Z,28.70
2022-08-08T13:38:39.769Z,28.70
2022-08-08T13:41:16.079Z,28.60
2022-08-08T13:43:49.664Z,28.60
2022-08-08T13:46:27.098Z,28.60
2022-08-08T13:50:33.901Z,28.60
2022-08-08T13:52:00.867Z,28.60
2022-08-08T13:54:31.833Z,28.60
2022-08-08T13:57:12.803Z,28.60
2022-08-08T13:59:49.064Z,28.70
2022-08-08T14:02:32.912Z,28.70
2022-08-08T14:05:20.413Z,28.70
2022-08-08T14:07:52.625Z,28.70
2022-08-08T14:10:33.476Z,28.70
2022-08-08T14:13:31.238Z,28.70
2022-08-08T14:16:16.151Z,28.70
2022-08-08T14:19:10.872Z,28.70
2022-08-08T14:21:48.829Z,28.70
2022-08-08T14:24:33.556Z,28.80
2022-08-08T14:27:01.946Z,28.80
2022-08-08T14:29:39.255Z,28.80
2022-08-08T14:32:12.493Z,28.80
2022-08-08T14:34:45.212Z,28.80
2022-08-08T14:37:17.884Z,28.80
2022-08-08T14:40:06.659Z,28.80
2022-08-08T14:42:55.055Z,28.80
2022-08-08T14:45:46.777Z,28.80
2022-08-08T14:48:27.221Z,28.80
2022-08-08T14:51:06.529Z,28.80
2022-08-08T14:53:54.908Z,28.80
2022-08-08T14:56:25.940Z,28.80
2022-08-08T14:58:55.022Z,28.80
2022-08-08T15:01:37.681Z,28.80
2022-08-08T15:04:09.651Z,28.80
2022-08-08T15:06:37.322Z,28.80
2022-08-08T15:09:04.821Z,28.80
2022-08-08T15:11:42.979Z,28.80
2022-08-08T15:14:14.573Z,28.80
2022-08-08T15:16:44.484Z,28.80
2022-08-08T15:19:11.877Z,28.80
2022-08-08T15:21:44.673Z,28.80
2022-08-08T15:24:13.957Z,28.80
2022-08-08T15:26:46.709Z,28.80
2022-08-08T15:29:22.497Z,28.80
2022-08-08T15:32:18.935Z,28.80
2022-08-08T15:34:39.324Z,28.80
2022-08-08T15:37:07.194Z,28.80
2022-08-08T15:39:37.728Z,28.80
2022-08-08T15:42:13.301Z,28.80
2022-08-08T15:44:51.672Z,28.80
2022-08-08T15:47:22.440Z,28.70
2022-08-08T15:49:50.827Z,28.70
2022-08-08T15:52:21.998Z,28.70
2022-08-08T15:54:51.823Z,28.70
2022-08-08T15:57:21.022Z,28.70
2022-08-08T16:00:06.847Z,28.70
2022-08-08T16:02:50.499Z,28.70
2022-08-08T16:05:23.597Z,28.70
2022-08-08T16:07:53.964Z,28.70
2022-08-08T16:13:10.084Z,28.70
2022-08-08T16:13:32.318Z,28.70
2022-08-08T16:16:13.338Z,28.70
2022-08-08T16:18:53.138Z,28.70
2022-08-08T16:21:32.212Z,28.70
2022-08-08T16:24:10.206Z,28.70
2022-08-08T16:26:40.735Z,28.70
2022-08-08T16:29:16.421Z,28.70
2022-08-08T16:31:49.941Z,28.60
2022-08-08T16:34:21.456Z,28.60
2022-08-08T16:36:50.319Z,28.60
2022-08-08T16:40:01.163Z,28.60
2022-08-08T16:42:06.362Z,28.60
2022-08-08T16:44:34.595Z,28.60
2022-08-08T16:47:40.409Z,28.60
2022-08-08T16:50:14.290Z,28.50
2022-08-08T16:55:22.623Z,28.50
2022-08-08T16:55:55.710Z,28.50
2022-08-08T16:58:25.813Z,28.50
2022-08-08T17:00:55.359Z,28.50
2022-08-08T17:03:57.794Z,28.50
2022-08-08T17:06:37.448Z,28.50
2022-08-08T17:08:59.272Z,28.50
2022-08-08T17:11:27.943Z,28.50
2022-08-08T17:14:01.445Z,28.50
2022-08-08T17:16:30.073Z,28.50
2022-08-08T17:18:58.422Z,28.50
2022-08-08T17:21:41.484Z,28.50
2022-08-08T17:24:10.501Z,28.50
2022-08-08T17:26:49.152Z,28.50
2022-08-08T17:29:25.050Z,28.50
2022-08-08T17:31:52.883Z,28.50
2022-08-08T17:34:54.213Z,28.50
2022-08-08T17:37:11.139Z,28.40
2022-08-08T17:40:03.167Z,28.40
2022-08-08T17:42:28.203Z,28.40
2022-08-08T17:44:58.098Z,28.40
2022-08-08T17:47:27.519Z,28.40
2022-08-08T17:50:01.005Z,28.40
2022-08-08T17:52:35.549Z,28.40
2022-08-08T17:55:09.398Z,28.40
2022-08-08T17:57:53.745Z,28.40
2022-08-08T18:00:26.061Z,28.40
2022-08-08T18:03:09.010Z,28.40
2022-08-08T18:05:48.786Z,28.30
2022-08-08T18:08:24.824Z,28.30
2022-08-08T18:11:14.730Z,28.30
2022-08-08T18:13:45.709Z,28.30
2022-08-08T18:16:20.275Z,28.30
2022-08-08T18:18:52.398Z,28.20
2022-08-08T18:21:34.343Z,28.20
2022-08-08T18:24:18.913Z,28.20
2022-08-08T18:26:55.001Z,28.10
2022-08-08T18:29:32.881Z,28.10
2022-08-08T18:32:04.893Z,28.00
2022-08-08T18:34:33.571Z,27.90
2022-08-08T18:37:04.912Z,27.80
2022-08-08T18:39:36.465Z,27.70
2022-08-08T18:42:06.699Z,27.60
2022-08-08T18:44:41.907Z,27.50
2022-08-08T18:47:09.006Z,27.40
2022-08-08T18:49:57.381Z,27.30
2022-08-08T18:52:24.084Z,27.20
2022-08-08T18:54:59.360Z,27.10
2022-08-08T18:57:31.915Z,27.00
2022-08-08T19:00:07.544Z,26.90
2022-08-08T19:02:37.850Z,26.80
2022-08-08T19:05:22.604Z,26.80
2022-08-08T19:07:52.276Z,26.70
2022-08-08T19:10:20.300Z,26.60
2022-08-08T19:12:53.209Z,26.50
2022-08-08T19:15:21.653Z,26.50
2022-08-08T19:18:32.495Z,26.40
2022-08-08T19:20:40.404Z,26.30
2022-08-08T19:23:10.902Z,26.20
2022-08-08T19:26:02.244Z,26.10
2022-08-08T19:28:25.835Z,26.00
2022-08-08T19:31:03.927Z,26.00
2022-08-08T19:33:51.591Z,25.90
2022-08-08T19:36:25.112Z,25.80
2022-08-08T19:38:56.517Z,25.70
2022-08-08T19:41:33.727Z,25.70
2022-08-08T19:44:03.984Z,25.60
2022-08-08T19:46:40.087Z,25.50
2022-08-08T19:49:07.642Z,25.50
2022-08-08T19:51:41.618Z,25.50
2022-08-08T19:54:11.716Z,25.40
2022-08-08T19:56:41.430Z,25.30
2022-08-08T19:59:10.106Z,25.30
2022-08-08T20:02:01.867Z,25.20
2022-08-08T20:04:27.979Z,25.20
2022-08-08T20:06:57.669Z,25.10
2022-08-08T20:09:25.331Z,25.10
2022-08-08T20:11:57.615Z,25.00
2022-08-08T20:14:35.649Z,25.00
2022-08-08T20:17:09.146Z,25.00
2022-08-08T20:19:43.500Z,25.00
2022-08-08T20:22:13.483Z,24.90
2022-08-08T20:24:48.761Z,24.90
2022-08-08T20:27:20.377Z,24.90
2022-08-08T20:29:55.764Z,24.80
2022-08-08T20:32:31.808Z,24.80
2022-08-08T20:35:02.487Z,24.80
2022-08-08T20:37:46.688Z,24.70
2022-08-08T20:40:20.426Z,24.70
2022-08-08T20:43:16.483Z,24.60
2022-08-08T20:45:57.897Z,24.60
2022-08-08T20:48:30.739Z,24.60
2022-08-08T20:50:58.222Z,24.50
2022-08-08T20:53:58.387Z,24.50
2022-08-08T20:56:14.054Z,24.50
2022-08-08T20:58:48.004Z,24.40
2022-08-08T21:01:19.397Z,24.40
2022-08-08T21:03:59.879Z,24.40
2022-08-08T21:06:52.626Z,24.40
2022-08-08T21:09:16.487Z,24.30
2022-08-08T21:11:51.358Z,24.30
2022-08-08T21:14:30.154Z,24.30
2022-08-08T21:17:02.290Z,24.20
2022-08-08T21:19:33.936Z,24.20
2022-08-08T21:22:11.825Z,24.20
2022-08-08T21:24:41.958Z,24.10
2022-08-08T21:28:06.055Z,24.10
2022-08-08T21:30:17.948Z,24.10
2022-08-08T21:32:52.286Z,24.10
2022-08-08T21:36:13.818Z,24.00
2022-08-08T21:38:16.363Z,24.00
2022-08-08T21:40:54.739Z,23.90
2022-08-08T21:43:33.587Z,23.90
2022-08-08T21:48:04.625Z,23.90
2022-08-08T21:48:53.061Z,23.80
2022-08-08T21:54:18.445Z,23.80
2022-08-08T21:54:33.228Z,23.80
2022-08-08T21:57:08.252Z,23.70
2022-08-08T21:59:59.407Z,23.70
2022-08-08T22:02:24.907Z,23.70
2022-08-08T22:04:56.082Z,23.70
2022-08-08T22:07:39.982Z,23.70
2022-08-08T22:10:18.287Z,23.60
2022-08-08T22:13:17.139Z,23.60
2022-08-08T22:15:59.391Z,23.60
2022-08-08T22:18:33.866Z,23.60
2022-08-08T22:21:10.769Z,23.50
2022-08-08T22:23:50.271Z,23.50
2022-08-08T22:26:29.244Z,23.50
2022-08-08T22:29:14.787Z,23.50
2022-08-08T22:31:58.753Z,23.50
2022-08-08T22:34:32.149Z,23.50
2022-08-08T22:37:00.112Z,23.50
2022-08-08T22:39:39.496Z,23.50
2022-08-08T22:42:27.046Z,23.50
2022-08-08T22:44:58.612Z,23.40
2022-08-08T22:47:37.730Z,23.40
2022-08-08T22:50:21.734Z,23.40
2022-08-08T22:54:15.734Z,23.40
2022-08-08T22:55:58.723Z,23.40
2022-08-08T22:58:34.807Z,23.40
2022-08-08T23:01:16.776Z,23.40
2022-08-08T23:03:55.100Z,23.40
2022-08-08T23:06:26.861Z,23.30
2022-08-08T23:08:58.539Z,23.30
2022-08-08T23:12:18.480Z,23.30
2022-08-08T23:14:21.564Z,23.30
2022-08-08T23:16:57.798Z,23.30
2022-08-08T23:19:31.115Z,23.30
2022-08-08T23:22:05.407Z,23.30
2022-08-08T23:24:36.257Z,23.30
2022-08-08T23:27:06.071Z,23.30
2022-08-08T23:29:33.875Z,23.30
2022-08-08T23:32:04.459Z,23.20
2022-08-08T23:34:32.327Z,23.20
2022-08-08T23:37:02.752Z,23.20
2022-08-08T23:39:42.036Z,23.20
2022-08-08T23:42:16.591Z,23.20
2022-08-08T23:44:43.640Z,23.10
2022-08-08T23:49:04.474Z,23.20
2022-08-08T23:50:03.199Z,23.10
2022-08-08T23:52:33.914Z,23.10
2022-08-08T23:55:13.973Z,23.10
2022-08-08T23:57:53.164Z,23.10
